createdAt,value
2018-03-01T00:00:07.752Z,100737.88
2018-03-01T00:02:36.024Z,100737.28
2018-03-01T00:05:07.274Z,100729.44
2018-03-01T00:07:35.563Z,100729.09
2018-03-01T00:10:07.940Z,100728.93
2018-03-01T00:12:36.466Z,100733.42
2018-03-01T00:15:06.326Z,100718.72
2018-03-01T00:17:34.620Z,100706.25
2018-03-01T00:20:05.878Z,100704.34
2018-03-01T00:22:36.922Z,100704.43
2018-03-01T00:25:06.250Z,100712.17
2018-03-01T00:27:34.567Z,100717.64
2018-03-01T00:30:06.520Z,100729.66
2018-03-01T00:32:38.563Z,100724.62
2018-03-01T00:35:06.869Z,100714.20
2018-03-01T00:37:35.171Z,100719.88
2018-03-01T00:40:06.450Z,100716.30
2018-03-01T00:42:35.089Z,100714.48
2018-03-01T00:45:07.110Z,100719.45
2018-03-01T00:47:35.441Z,100730.41
2018-03-01T00:50:07.368Z,100734.87
2018-03-01T00:52:35.781Z,100726.05
2018-03-01T00:55:06.106Z,100721.54
2018-03-01T00:57:34.644Z,100719.88
2018-03-01T01:00:05.883Z,100713.17
2018-03-01T01:02:34.210Z,100718.73
2018-03-01T01:05:09.364Z,100709.39
2018-03-01T01:07:37.692Z,100702.00
2018-03-01T01:10:06.003Z,100706.00
2018-03-01T01:12:34.304Z,100710.36
2018-03-01T01:15:09.372Z,100721.42
2018-03-01T01:17:38.276Z,100711.34
2018-03-01T01:20:06.592Z,100708.91
2018-03-01T01:22:35.408Z,100705.63
2018-03-01T01:25:07.239Z,100701.14
2018-03-01T01:27:35.542Z,100696.23
2018-03-01T01:30:06.182Z,100693.65
2018-03-01T01:32:34.476Z,100681.50
2018-03-01T01:35:06.042Z,100683.45
2018-03-01T01:37:34.334Z,100697.38
2018-03-01T01:40:09.340Z,100687.69
2018-03-01T01:42:37.736Z,100686.69
2018-03-01T01:45:06.202Z,100677.85
2018-03-01T01:47:34.518Z,100676.82
2018-03-01T01:50:06.685Z,100678.34
2018-03-01T01:52:35.242Z,100666.22
2018-03-01T01:55:06.999Z,100655.52
2018-03-01T01:57:35.305Z,100653.00
2018-03-01T02:00:06.573Z,100646.89
2018-03-01T02:02:35.016Z,100636.98
2018-03-01T02:05:06.697Z,100637.92
2018-03-01T02:07:35.019Z,100628.03
2018-03-01T02:10:06.932Z,100616.64
2018-03-01T02:12:35.461Z,100582.42
2018-03-01T02:15:07.201Z,100596.77
2018-03-01T02:17:36.114Z,100592.00
2018-03-01T02:20:08.323Z,100587.70
2018-03-01T02:22:36.619Z,100595.07
2018-03-01T02:25:07.945Z,100594.86
2018-03-01T02:27:36.257Z,100607.79
2018-03-01T02:30:06.114Z,100588.56
2018-03-01T02:32:34.434Z,100581.99
2018-03-01T02:35:08.799Z,100574.95
2018-03-01T02:37:37.111Z,100580.24
2018-03-01T02:40:06.630Z,100588.38
2018-03-01T02:42:34.955Z,100579.47
2018-03-01T02:45:06.433Z,100565.50
2018-03-01T02:47:34.746Z,100555.80
2018-03-01T02:50:09.746Z,100546.45
2018-03-01T02:52:38.067Z,100536.41
2018-03-01T02:55:06.722Z,100554.91
2018-03-01T02:57:35.210Z,100548.08
2018-03-01T03:00:13.217Z,100538.56
2018-03-01T03:02:41.521Z,100524.83
2018-03-01T03:05:09.909Z,100516.72
2018-03-01T03:07:38.284Z,100508.74
2018-03-01T03:10:06.604Z,100503.52
2018-03-01T03:12:34.893Z,100492.05
2018-03-01T03:15:07.026Z,100484.77
2018-03-01T03:17:35.335Z,100491.40
2018-03-01T03:20:07.958Z,100495.11
2018-03-01T03:22:36.268Z,100485.30
2018-03-01T03:25:07.736Z,100469.61
2018-03-01T03:27:36.019Z,100465.31
2018-03-01T03:30:12.234Z,100479.83
2018-03-01T03:32:40.537Z,100455.27
2018-03-01T03:35:08.883Z,100455.56
2018-03-01T03:37:37.251Z,100461.84
2018-03-01T03:40:06.907Z,100458.80
2018-03-01T03:42:35.209Z,100454.80
2018-03-01T03:45:06.752Z,100449.34
2018-03-01T03:47:35.054Z,100449.67
2018-03-01T03:50:09.185Z,100456.02
2018-03-01T03:52:37.470Z,100458.89
2018-03-01T03:55:07.003Z,100456.71
2018-03-01T03:57:35.290Z,100452.89
2018-03-01T04:00:07.271Z,100457.58
2018-03-01T04:02:35.564Z,100461.25
2018-03-01T04:05:06.973Z,100460.88
2018-03-01T04:07:35.879Z,100453.11
2018-03-01T04:10:07.653Z,100457.05
2018-03-01T04:12:35.976Z,100457.58
2018-03-01T04:15:07.992Z,100449.95
2018-03-01T04:17:36.307Z,100458.44
2018-03-01T04:20:08.270Z,100461.98
2018-03-01T04:22:36.576Z,100469.00
2018-03-01T04:25:06.391Z,100454.44
2018-03-01T04:27:34.839Z,100450.34
2018-03-01T04:30:06.631Z,100438.86
2018-03-01T04:32:34.946Z,100445.08
2018-03-01T04:35:07.397Z,100454.41
2018-03-01T04:37:35.715Z,100456.98
2018-03-01T04:40:07.151Z,100444.66
2018-03-01T04:42:35.459Z,100436.39
2018-03-01T04:45:07.474Z,100434.47
2018-03-01T04:47:35.801Z,100425.31
2018-03-01T04:50:07.317Z,100422.36
2018-03-01T04:52:35.643Z,100411.52
2018-03-01T04:55:07.751Z,100407.55
2018-03-01T04:57:36.068Z,100405.16
2018-03-01T05:00:07.737Z,100407.15
2018-03-01T05:02:36.101Z,100407.41
2018-03-01T05:05:08.356Z,100404.11
2018-03-01T05:07:36.691Z,100402.35
2018-03-01T05:10:06.790Z,100428.61
2018-03-01T05:12:35.377Z,100436.31
2018-03-01T05:15:07.312Z,100440.29
2018-03-01T05:17:35.609Z,100454.27
2018-03-01T05:20:07.809Z,100451.33
2018-03-01T05:22:36.346Z,100437.51
2018-03-01T05:25:08.090Z,100425.67
2018-03-01T05:27:36.401Z,100414.06
2018-03-01T05:30:07.934Z,100413.56
2018-03-01T05:32:36.881Z,100423.78
2018-03-01T05:35:08.128Z,100426.13
2018-03-01T05:37:36.430Z,100422.20
2018-03-01T05:40:08.579Z,100422.86
2018-03-01T05:42:36.890Z,100419.84
2018-03-01T05:45:07.043Z,100410.63
2018-03-01T05:47:35.350Z,100403.28
2018-03-01T05:50:06.549Z,100405.79
2018-03-01T05:52:34.865Z,100395.01
2018-03-01T05:55:10.090Z,100396.41
2018-03-01T05:57:38.399Z,100401.66
2018-03-01T06:00:07.327Z,100407.61
2018-03-01T06:02:35.654Z,100410.19
2018-03-01T06:05:07.451Z,100411.55
2018-03-01T06:07:35.781Z,100412.02
2018-03-01T06:10:07.208Z,100411.41
2018-03-01T06:12:36.050Z,100420.18
2018-03-01T06:15:08.126Z,100422.86
2018-03-01T06:17:36.463Z,100420.41
2018-03-01T06:20:07.710Z,100410.52
2018-03-01T06:22:36.016Z,100421.38
2018-03-01T06:25:07.245Z,100412.17
2018-03-01T06:27:35.610Z,100414.20
2018-03-01T06:30:05.656Z,100415.68
2018-03-01T06:32:33.955Z,100410.78
2018-03-01T06:35:08.996Z,100411.58
2018-03-01T06:37:37.297Z,100408.41
2018-03-01T06:40:05.781Z,100408.38
2018-03-01T06:42:34.155Z,100411.61
2018-03-01T06:45:06.153Z,100410.72
2018-03-01T06:47:34.636Z,100398.12
2018-03-01T06:50:06.596Z,100395.87
2018-03-01T06:52:35.065Z,100397.89
2018-03-01T06:55:06.810Z,100383.70
2018-03-01T06:57:35.296Z,100372.39
2018-03-01T07:00:07.030Z,100383.98
2018-03-01T07:02:35.334Z,100378.56
2018-03-01T07:05:06.574Z,100380.69
2018-03-01T07:07:34.855Z,100375.38
2018-03-01T07:10:06.691Z,100379.75
2018-03-01T07:12:34.982Z,100381.87
2018-03-01T07:15:06.734Z,100385.06
2018-03-01T07:17:35.040Z,100389.08
2018-03-01T07:20:07.572Z,100378.11
2018-03-01T07:22:36.171Z,100371.06
2018-03-01T07:25:05.806Z,100354.48
2018-03-01T07:27:34.107Z,100359.78
2018-03-01T07:30:08.280Z,100354.78
2018-03-01T07:32:36.633Z,100353.62
2018-03-01T07:35:06.149Z,100352.83
2018-03-01T07:37:35.110Z,100357.56
2018-03-01T07:40:06.430Z,100356.35
2018-03-01T07:42:34.920Z,100352.83
2018-03-01T07:45:06.978Z,100348.11
2018-03-01T07:47:35.286Z,100338.40
2018-03-01T07:50:07.214Z,100347.83
2018-03-01T07:52:35.525Z,100349.81
2018-03-01T07:55:06.768Z,100345.55
2018-03-01T07:57:35.085Z,100344.68
2018-03-01T08:00:07.113Z,100333.02
2018-03-01T08:02:35.431Z,100318.98
2018-03-01T08:05:07.461Z,100317.91
2018-03-01T08:07:35.771Z,100308.64
2018-03-01T08:10:05.784Z,100312.05
2018-03-01T08:12:34.090Z,100308.88
2018-03-01T08:15:09.381Z,100314.75
2018-03-01T08:17:37.698Z,100306.16
2018-03-01T08:20:06.015Z,100305.03
2018-03-01T08:22:34.315Z,100308.69
2018-03-01T08:25:05.948Z,100298.73
2018-03-01T08:27:34.264Z,100294.08
2018-03-01T08:30:05.748Z,100294.28
2018-03-01T08:32:34.046Z,100278.94
2018-03-01T08:35:09.192Z,100277.70
2018-03-01T08:37:37.477Z,100272.13
2018-03-01T08:40:06.343Z,100262.89
2018-03-01T08:42:34.650Z,100257.61
2018-03-01T08:45:05.877Z,100246.67
2018-03-01T08:47:34.168Z,100257.33
2018-03-01T08:50:05.517Z,100259.73
2018-03-01T08:52:33.818Z,100270.85
2018-03-01T08:55:08.804Z,100270.08
2018-03-01T08:57:37.087Z,100260.52
2018-03-01T09:00:06.508Z,100251.77
2018-03-01T09:02:35.023Z,100251.86
2018-03-01T09:05:06.999Z,100241.14
2018-03-01T09:07:35.306Z,100248.06
2018-03-01T09:10:06.934Z,100243.00
2018-03-01T09:12:35.433Z,100248.41
2018-03-01T09:15:06.908Z,100241.32
2018-03-01T09:17:35.635Z,100226.31
2018-03-01T09:20:07.436Z,100218.18
2018-03-01T09:22:35.730Z,100203.20
2018-03-01T09:25:05.698Z,100193.63
2018-03-01T09:27:34.100Z,100194.09
2018-03-01T09:30:05.896Z,100190.19
2018-03-01T09:32:34.221Z,100190.94
2018-03-01T09:35:06.057Z,100170.88
2018-03-01T09:37:34.525Z,100184.41
2018-03-01T09:40:06.233Z,100161.55
2018-03-01T09:42:34.503Z,100155.42
2018-03-01T09:45:05.855Z,100154.70
2018-03-01T09:47:34.150Z,100154.20
2018-03-01T09:50:09.080Z,100153.14
2018-03-01T09:52:37.633Z,100149.44
2018-03-01T09:55:06.019Z,100168.52
2018-03-01T09:57:34.505Z,100147.77
2018-03-01T10:00:06.396Z,100164.30
2018-03-01T10:02:34.969Z,100164.67
2018-03-01T10:05:07.082Z,100154.38
2018-03-01T10:07:35.433Z,100161.42
2018-03-01T10:10:06.639Z,100145.31
2018-03-01T10:12:34.939Z,100141.82
2018-03-01T10:15:07.090Z,100148.99
2018-03-01T10:17:35.385Z,100149.89
2018-03-01T10:20:07.433Z,100131.30
2018-03-01T10:22:35.926Z,100134.30
2018-03-01T10:25:05.903Z,100135.58
2018-03-01T10:27:34.194Z,100126.44
2018-03-01T10:30:06.346Z,100120.47
2018-03-01T10:32:34.632Z,100103.91
2018-03-01T10:35:05.757Z,100113.14
2018-03-01T10:37:34.045Z,100118.41
2018-03-01T10:40:05.506Z,100120.76
2018-03-01T10:42:33.786Z,100116.43
2018-03-01T10:45:05.213Z,100101.53
2018-03-01T10:47:33.493Z,100097.23
2018-03-01T10:50:08.362Z,100080.89
2018-03-01T10:52:36.701Z,100091.48
2018-03-01T10:55:06.570Z,100077.66
2018-03-01T10:57:34.851Z,100068.53
2018-03-01T11:00:06.787Z,100054.00
2018-03-01T11:02:35.067Z,100068.28
2018-03-01T11:05:05.831Z,100048.50
2018-03-01T11:07:34.128Z,100036.02
2018-03-01T11:10:09.184Z,100050.66
2018-03-01T11:12:37.500Z,100043.31
2018-03-01T11:15:05.886Z,100043.88
2018-03-01T11:17:34.216Z,100030.45
2018-03-01T11:20:05.828Z,100047.92
2018-03-01T11:22:34.220Z,100037.66
2018-03-01T11:25:09.196Z,100027.05
2018-03-01T11:27:37.543Z,100014.48
2018-03-01T11:30:05.875Z,100025.81
2018-03-01T11:32:34.457Z,100013.70
2018-03-01T11:35:08.557Z,100017.52
2018-03-01T11:37:36.864Z,100025.02
2018-03-01T11:40:06.101Z,100011.41
2018-03-01T11:42:34.547Z,99991.22
2018-03-01T11:45:05.865Z,99989.48
2018-03-01T11:47:34.160Z,99997.02
2018-03-01T11:50:05.633Z,99985.32
2018-03-01T11:52:33.974Z,99969.82
2018-03-01T11:55:09.025Z,99985.45
2018-03-01T11:57:37.289Z,99987.09
2018-03-01T12:00:05.941Z,99950.61
2018-03-01T12:02:34.203Z,99950.88
2018-03-01T12:05:05.767Z,99950.94
2018-03-01T12:07:34.040Z,99949.27
2018-03-01T12:10:05.470Z,99943.40
2018-03-01T12:12:33.753Z,99956.09
2018-03-01T12:15:09.573Z,99930.68
2018-03-01T12:17:38.142Z,99928.21
2018-03-01T12:20:06.458Z,99933.41
2018-03-01T12:22:34.732Z,99911.57
2018-03-01T12:25:06.785Z,99926.33
2018-03-01T12:27:35.057Z,99940.37
2018-03-01T12:30:06.750Z,99930.44
2018-03-01T12:32:35.253Z,99931.73
2018-03-01T12:35:07.108Z,99920.95
2018-03-01T12:37:35.586Z,99933.13
2018-03-01T12:40:07.545Z,99914.03
2018-03-01T12:42:35.825Z,99905.66
2018-03-01T12:45:07.141Z,99920.77
2018-03-01T12:47:35.419Z,99905.88
2018-03-01T12:50:06.753Z,99906.58
2018-03-01T12:52:35.017Z,99905.97
2018-03-01T12:55:05.925Z,99901.70
2018-03-01T12:57:34.200Z,99899.77
2018-03-01T13:00:05.774Z,99880.78
2018-03-01T13:02:34.248Z,99878.59
2018-03-01T13:05:11.602Z,99873.32
2018-03-01T13:07:39.899Z,99876.28
2018-03-01T13:10:08.172Z,99873.73
2018-03-01T13:12:36.463Z,99862.04
2018-03-01T13:15:07.861Z,99856.41
2018-03-01T13:17:37.618Z,99854.73
2018-03-01T13:20:11.669Z,99844.53
2018-03-01T13:22:39.979Z,99843.27
2018-03-01T13:25:08.286Z,99838.72
2018-03-01T13:27:36.553Z,99848.45
2018-03-01T13:30:23.260Z,99857.15
2018-03-01T13:32:56.302Z,99847.22
2018-03-01T13:35:35.561Z,99837.50
2018-03-01T13:38:03.859Z,99839.81
2018-03-01T13:40:32.129Z,99833.10
2018-03-01T13:43:00.447Z,99849.28
2018-03-01T13:45:30.469Z,99836.75
2018-03-01T13:48:00.178Z,99852.43
2018-03-01T13:50:29.039Z,99832.40
2018-03-01T13:52:57.478Z,99831.34
2018-03-01T13:55:25.803Z,99837.86
2018-03-01T13:57:54.092Z,99833.91
2018-03-01T14:00:22.379Z,99829.66
2018-03-01T14:02:50.665Z,99820.94
2018-03-01T14:05:19.884Z,99815.86
2018-03-01T14:07:50.554Z,99826.85
2018-03-01T14:10:19.744Z,99820.23
2018-03-01T14:16:17.556Z,99815.70
2018-03-01T14:18:48.595Z,99820.63
2018-03-01T14:21:22.409Z,99847.66
2018-03-01T14:24:07.387Z,99812.47
2018-03-01T14:26:35.826Z,99809.63
2018-03-01T14:29:08.279Z,99814.55
2018-03-01T14:31:36.582Z,99814.39
2018-03-01T14:34:04.872Z,99793.86
2018-03-01T14:36:33.200Z,99780.87
2018-03-01T14:39:01.480Z,99775.47
2018-03-01T14:41:29.777Z,99776.30
2018-03-01T14:43:58.053Z,99771.47
2018-03-01T14:46:27.074Z,99765.60
2018-03-01T14:48:55.409Z,99767.77
2018-03-01T14:51:24.336Z,99751.91
2018-03-01T14:53:52.717Z,99757.41
2018-03-01T14:56:21.042Z,99750.34
2018-03-01T14:58:49.348Z,99745.86
2018-03-01T15:01:17.633Z,99749.01
2018-03-01T15:03:45.935Z,99741.16
2018-03-01T15:06:14.210Z,99738.54
2018-03-01T15:08:42.563Z,99749.09
2018-03-01T15:11:10.874Z,99742.58
2018-03-01T15:13:39.233Z,99729.31
2018-03-01T15:16:07.798Z,99726.86
2018-03-01T15:18:36.650Z,99729.09
2018-03-01T15:21:05.151Z,99725.58
2018-03-01T15:23:33.442Z,99728.71
2018-03-01T15:26:01.729Z,99722.36
2018-03-01T15:28:30.024Z,99731.86
2018-03-01T15:30:58.360Z,99716.88
2018-03-01T15:33:26.655Z,99722.64
2018-03-01T15:35:54.942Z,99732.27
2018-03-01T15:38:23.216Z,99718.98
2018-03-01T15:40:51.510Z,99713.04
2018-03-01T15:43:19.961Z,99708.23
2018-03-01T15:45:48.236Z,99706.88
2018-03-01T15:48:16.514Z,99706.61
2018-03-01T15:50:44.816Z,99702.05
2018-03-01T15:53:13.291Z,99701.19
2018-03-01T15:55:41.591Z,99697.77
2018-03-01T15:58:09.865Z,99711.58
2018-03-01T16:00:38.149Z,99699.30
2018-03-01T16:03:07.219Z,99699.77
2018-03-01T16:05:35.609Z,99710.81
2018-03-01T16:08:04.101Z,99709.84
2018-03-01T16:10:32.395Z,99712.00
2018-03-01T16:13:00.956Z,99718.04
2018-03-01T16:15:29.197Z,99714.01
2018-03-01T16:17:58.017Z,99708.73
2018-03-01T16:20:26.262Z,99707.70
2018-03-01T16:22:54.558Z,99713.22
2018-03-01T16:25:22.942Z,99711.73
2018-03-01T16:27:51.219Z,99715.58
2018-03-01T16:30:19.494Z,99709.05
2018-03-01T16:32:47.815Z,99702.42
2018-03-01T16:35:16.094Z,99694.70
2018-03-01T16:37:44.458Z,99700.59
2018-03-01T16:40:12.791Z,99710.94
2018-03-01T16:42:41.335Z,99721.51
2018-03-01T16:45:09.616Z,99724.54
2018-03-01T16:47:37.895Z,99726.57
2018-03-01T16:50:06.173Z,99729.84
2018-03-01T16:52:34.469Z,99732.19
2018-03-01T16:55:06.407Z,99729.83
2018-03-01T16:57:34.885Z,99739.20
2018-03-01T17:00:07.109Z,99734.59
2018-03-01T17:02:35.359Z,99742.15
2018-03-01T17:05:07.484Z,99733.03
2018-03-01T17:07:35.765Z,99737.58
2018-03-01T17:10:07.197Z,99742.67
2018-03-01T17:12:35.481Z,99734.55
2018-03-01T17:15:07.357Z,99741.48
2018-03-01T17:17:35.644Z,99730.17
2018-03-01T17:20:07.158Z,99739.34
2018-03-01T17:22:35.538Z,99727.13
2018-03-01T17:25:07.013Z,99737.61
2018-03-01T17:27:35.293Z,99728.59
2018-03-01T17:30:07.016Z,99736.83
2018-03-01T17:32:35.320Z,99729.44
2018-03-01T17:35:07.561Z,99722.20
2018-03-01T17:37:35.857Z,99731.98
2018-03-01T17:40:07.674Z,99725.77
2018-03-01T17:42:36.464Z,99733.48
2018-03-01T17:45:08.154Z,99722.98
2018-03-01T17:47:36.468Z,99720.11
2018-03-01T17:50:06.593Z,99723.50
2018-03-01T17:52:34.918Z,99731.87
2018-03-01T17:55:06.421Z,99726.77
2018-03-01T17:57:34.801Z,99730.36
2018-03-01T18:00:06.245Z,99730.95
2018-03-01T18:02:34.560Z,99735.83
2018-03-01T18:05:06.460Z,99738.44
2018-03-01T18:07:35.411Z,99715.08
2018-03-01T18:10:07.104Z,99727.01
2018-03-01T18:12:35.425Z,99726.56
2018-03-01T18:15:07.449Z,99727.57
2018-03-01T18:17:36.228Z,99716.75
2018-03-01T18:20:08.081Z,99715.17
2018-03-01T18:22:36.381Z,99718.78
2018-03-01T18:25:06.409Z,99722.56
2018-03-01T18:27:35.040Z,99703.50
2018-03-01T18:30:06.343Z,99707.03
2018-03-01T18:32:34.627Z,99702.14
2018-03-01T18:35:06.129Z,99705.42
2018-03-01T18:37:34.434Z,99701.09
2018-03-01T18:40:09.455Z,99708.47
2018-03-01T18:42:37.733Z,99711.44
2018-03-01T18:45:06.521Z,99709.73
2018-03-01T18:47:34.798Z,99715.98
2018-03-01T18:50:06.657Z,99714.75
2018-03-01T18:52:34.937Z,99721.11
2018-03-01T18:55:06.942Z,99720.37
2018-03-01T18:57:35.261Z,99721.27
2018-03-01T19:00:07.290Z,99710.95
2018-03-01T19:02:35.821Z,99704.00
2018-03-01T19:05:08.300Z,99697.78
2018-03-01T19:07:36.616Z,99684.66
2018-03-01T19:10:06.492Z,99684.58
2018-03-01T19:12:35.049Z,99687.49
2018-03-01T19:15:06.627Z,99683.70
2018-03-01T19:17:35.070Z,99678.84
2018-03-01T19:20:06.941Z,99686.86
2018-03-01T19:22:35.288Z,99687.92
2018-03-01T19:25:07.545Z,99676.70
2018-03-01T19:27:35.850Z,99673.39
2018-03-01T19:30:08.448Z,99676.95
2018-03-01T19:32:36.756Z,99676.92
2018-03-01T19:35:08.311Z,99673.92
2018-03-01T19:37:36.606Z,99682.89
2018-03-01T19:40:08.032Z,99671.64
2018-03-01T19:42:36.301Z,99669.81
2018-03-01T19:45:07.927Z,99660.94
2018-03-01T19:47:36.455Z,99659.61
2018-03-01T19:50:08.801Z,99657.06
2018-03-01T19:52:37.091Z,99644.90
2018-03-01T19:55:06.654Z,99646.02
2018-03-01T19:57:35.592Z,99644.92
2018-03-01T20:00:10.758Z,99644.56
2018-03-01T20:02:39.686Z,99657.47
2018-03-01T20:05:08.082Z,99649.70
2018-03-01T20:07:36.409Z,99649.98
2018-03-01T20:10:08.255Z,99645.41
2018-03-01T20:12:36.801Z,99635.49
2018-03-01T20:15:06.916Z,99643.21
2018-03-01T20:17:35.189Z,99640.13
2018-03-01T20:20:09.141Z,99648.19
2018-03-01T20:22:37.443Z,99650.73
2018-03-01T20:25:06.985Z,99642.36
2018-03-01T20:27:35.286Z,99637.98
2018-03-01T20:30:06.573Z,99630.86
2018-03-01T20:32:35.249Z,99634.33
2018-03-01T20:35:08.185Z,99632.19
2018-03-01T20:37:36.493Z,99633.80
2018-03-01T20:40:06.618Z,99627.25
2018-03-01T20:42:34.927Z,99620.08
2018-03-01T20:45:06.726Z,99620.73
2018-03-01T20:47:35.054Z,99605.13
2018-03-01T20:50:06.509Z,99616.38
2018-03-01T20:52:34.834Z,99619.55
2018-03-01T20:55:06.537Z,99624.58
2018-03-01T20:57:34.865Z,99624.79
2018-03-01T21:00:06.829Z,99628.05
2018-03-01T21:02:35.887Z,99624.72
2018-03-01T21:05:11.578Z,99616.71
2018-03-01T21:07:39.870Z,99623.39
2018-03-01T21:10:08.185Z,99624.50
2018-03-01T21:12:36.460Z,99620.97
2018-03-01T21:15:08.098Z,99618.45
2018-03-01T21:17:36.420Z,99628.84
2018-03-01T21:20:06.579Z,99613.95
2018-03-01T21:22:34.857Z,99624.18
2018-03-01T21:25:06.590Z,99610.91
2018-03-01T21:27:34.905Z,99610.19
2018-03-01T21:30:06.992Z,99609.47
2018-03-01T21:32:35.305Z,99598.33
2018-03-01T21:35:06.838Z,99595.25
2018-03-01T21:37:35.448Z,99589.10
2018-03-01T21:40:07.841Z,99584.13
2018-03-01T21:42:36.456Z,99581.05
2018-03-01T21:45:05.797Z,99565.42
2018-03-01T21:47:34.073Z,99567.52
2018-03-01T21:50:08.125Z,99564.79
2018-03-01T21:52:36.501Z,99557.36
2018-03-01T21:55:05.841Z,99553.17
2018-03-01T21:57:34.177Z,99576.97
2018-03-01T22:00:05.726Z,99570.80
2018-03-01T22:02:34.038Z,99562.09
2018-03-01T22:05:06.373Z,99570.38
2018-03-01T22:07:34.890Z,99560.98
2018-03-01T22:10:06.641Z,99568.77
2018-03-01T22:12:34.973Z,99565.74
2018-03-01T22:15:07.026Z,99561.38
2018-03-01T22:17:35.338Z,99536.94
2018-03-01T22:20:06.733Z,99551.44
2018-03-01T22:22:35.182Z,99556.25
2018-03-01T22:25:06.442Z,99566.71
2018-03-01T22:27:34.745Z,99551.16
2018-03-01T22:30:05.702Z,99563.34
2018-03-01T22:32:33.982Z,99566.79
2018-03-01T22:35:05.845Z,99562.20
2018-03-01T22:37:34.254Z,99567.36
2018-03-01T22:40:06.054Z,99570.10
2018-03-01T22:42:34.369Z,99569.01
2018-03-01T22:45:06.704Z,99570.23
2018-03-01T22:47:34.997Z,99567.45
2018-03-01T22:50:06.476Z,99559.64
2018-03-01T22:52:34.798Z,99563.01
2018-03-01T22:55:06.944Z,99568.72
2018-03-01T22:57:35.316Z,99570.14
2018-03-01T23:00:06.767Z,99556.39
2018-03-01T23:02:35.075Z,99559.48
2018-03-01T23:05:07.029Z,99554.27
2018-03-01T23:07:35.510Z,99559.16
2018-03-01T23:10:05.746Z,99549.24
2018-03-01T23:12:34.237Z,99561.06
2018-03-01T23:15:05.592Z,99551.89
2018-03-01T23:17:33.905Z,99544.59
2018-03-01T23:20:06.205Z,99551.66
2018-03-01T23:22:34.513Z,99542.81
2018-03-01T23:25:06.364Z,99549.19
2018-03-01T23:27:38.991Z,99538.81
2018-03-01T23:30:07.306Z,99538.31
2018-03-01T23:32:35.649Z,99531.81
2018-03-01T23:35:05.650Z,99528.61
2018-03-01T23:37:34.276Z,99526.49
2018-03-01T23:40:08.296Z,99525.30
2018-03-01T23:42:36.736Z,99520.25
2018-03-01T23:45:07.217Z,99513.66
2018-03-01T23:47:35.528Z,99514.14
2018-03-01T23:50:07.473Z,99520.98
2018-03-01T23:52:35.770Z,99521.30
2018-03-01T23:55:05.611Z,99514.38
2018-03-01T23:57:33.891Z,99511.68
